sensor_id;sensor_type;location;lat;lon;timestamp;P1;durP1;ratioP1;P2;durP2;ratioP2
76059;SDS011;64759;52.220;5.170;2023-04-24T00:00:07;5.68;;;3.30;;
76059;SDS011;64759;52.220;5.170;2023-04-24T00:02:38;2.15;;;1.20;;
76059;SDS011;64759;52.220;5.170;2023-04-24T00:05:04;0.80;;;0.77;;
76059;SDS011;64759;52.220;5.170;2023-04-24T00:07:30;0.98;;;0.70;;
76059;SDS011;64759;52.220;5.170;2023-04-24T00:09:56;0.75;;;0.68;;
76059;SDS011;64759;52.220;5.170;2023-04-24T00:12:21;0.73;;;0.60;;
76059;SDS011;64759;52.220;5.170;2023-04-24T00:14:47;2.75;;;0.93;;
76059;SDS011;64759;52.220;5.170;2023-04-24T00:17:12;3.47;;;0.88;;
76059;SDS011;64759;52.220;5.170;2023-04-24T00:19:38;1.38;;;1.27;;
76059;SDS011;64759;52.220;5.170;2023-04-24T00:22:03;1.50;;;1.40;;
76059;SDS011;64759;52.220;5.170;2023-04-24T00:24:29;1.25;;;1.00;;
76059;SDS011;64759;52.220;5.170;2023-04-24T00:26:54;1.05;;;0.80;;
76059;SDS011;64759;52.220;5.170;2023-04-24T00:29:20;0.52;;;0.52;;
76059;SDS011;64759;52.220;5.170;2023-04-24T00:31:45;0.70;;;0.55;;
76059;SDS011;64759;52.220;5.170;2023-04-24T00:34:12;1.00;;;0.55;;
76059;SDS011;64759;52.220;5.170;2023-04-24T00:36:38;1.20;;;1.05;;
76059;SDS011;64759;52.220;5.170;2023-04-24T00:39:04;2.10;;;1.08;;
76059;SDS011;64759;52.220;5.170;2023-04-24T00:41:30;4.53;;;1.35;;
76059;SDS011;64759;52.220;5.170;2023-04-24T00:43:55;1.95;;;1.70;;
76059;SDS011;64759;52.220;5.170;2023-04-24T00:46:21;3.33;;;1.73;;
76059;SDS011;64759;52.220;5.170;2023-04-24T00:48:47;2.40;;;2.20;;
76059;SDS011;64759;52.220;5.170;2023-04-24T00:51:12;4.10;;;2.70;;
76059;SDS011;64759;52.220;5.170;2023-04-24T00:53:38;6.68;;;2.33;;
76059;SDS011;64759;52.220;5.170;2023-04-24T00:56:03;2.13;;;1.70;;
76059;SDS011;64759;52.220;5.170;2023-04-24T00:58:30;3.92;;;1.90;;
76059;SDS011;64759;52.220;5.170;2023-04-24T01:00:56;2.45;;;1.60;;
76059;SDS011;64759;52.220;5.170;2023-04-24T01:03:28;2.47;;;1.95;;
76059;SDS011;64759;52.220;5.170;2023-04-24T01:05:56;2.25;;;1.48;;
76059;SDS011;64759;52.220;5.170;2023-04-24T01:08:23;2.35;;;1.73;;
76059;SDS011;64759;52.220;5.170;2023-04-24T01:10:50;2.83;;;1.77;;
76059;SDS011;64759;52.220;5.170;2023-04-24T01:13:18;3.65;;;1.42;;
76059;SDS011;64759;52.220;5.170;2023-04-24T01:15:45;3.30;;;1.33;;
76059;SDS011;64759;52.220;5.170;2023-04-24T01:18:10;1.52;;;1.13;;
76059;SDS011;64759;52.220;5.170;2023-04-24T01:20:36;2.22;;;1.10;;
76059;SDS011;64759;52.220;5.170;2023-04-24T01:23:05;5.22;;;1.42;;
76059;SDS011;64759;52.220;5.170;2023-04-24T01:25:31;3.22;;;1.00;;
76059;SDS011;64759;52.220;5.170;2023-04-24T01:27:57;2.67;;;0.70;;
76059;SDS011;64759;52.220;5.170;2023-04-24T01:30:23;1.98;;;0.90;;
76059;SDS011;64759;52.220;5.170;2023-04-24T01:32:49;1.70;;;1.27;;
76059;SDS011;64759;52.220;5.170;2023-04-24T01:35:15;3.47;;;1.80;;
76059;SDS011;64759;52.220;5.170;2023-04-24T01:37:40;2.17;;;1.35;;
76059;SDS011;64759;52.220;5.170;2023-04-24T01:40:06;1.63;;;1.52;;
76059;SDS011;64759;52.220;5.170;2023-04-24T01:42:32;4.03;;;1.60;;
76059;SDS011;64759;52.220;5.170;2023-04-24T01:44:58;3.00;;;1.63;;
76059;SDS011;64759;52.220;5.170;2023-04-24T01:47:24;2.85;;;1.65;;
76059;SDS011;64759;52.220;5.170;2023-04-24T01:49:50;3.05;;;1.52;;
76059;SDS011;64759;52.220;5.170;2023-04-24T01:52:16;6.50;;;2.33;;
76059;SDS011;64759;52.220;5.170;2023-04-24T01:54:43;1.67;;;1.55;;
76059;SDS011;64759;52.220;5.170;2023-04-24T01:57:09;4.88;;;1.83;;
76059;SDS011;64759;52.220;5.170;2023-04-24T01:59:34;2.20;;;1.92;;
76059;SDS011;64759;52.220;5.170;2023-04-24T02:02:01;1.85;;;1.27;;
76059;SDS011;64759;52.220;5.170;2023-04-24T02:04:27;2.33;;;1.45;;
76059;SDS011;64759;52.220;5.170;2023-04-24T02:06:53;2.03;;;1.13;;
76059;SDS011;64759;52.220;5.170;2023-04-24T02:09:18;2.63;;;1.55;;
76059;SDS011;64759;52.220;5.170;2023-04-24T02:11:44;2.85;;;1.80;;
76059;SDS011;64759;52.220;5.170;2023-04-24T02:14:09;2.45;;;1.02;;
76059;SDS011;64759;52.220;5.170;2023-04-24T02:16:35;1.50;;;1.35;;
76059;SDS011;64759;52.220;5.170;2023-04-24T02:19:01;3.03;;;1.58;;
76059;SDS011;64759;52.220;5.170;2023-04-24T02:21:27;2.15;;;1.00;;
76059;SDS011;64759;52.220;5.170;2023-04-24T02:23:53;2.05;;;1.33;;
76059;SDS011;64759;52.220;5.170;2023-04-24T02:26:19;3.40;;;1.60;;
76059;SDS011;64759;52.220;5.170;2023-04-24T02:28:44;2.47;;;1.00;;
76059;SDS011;64759;52.220;5.170;2023-04-24T02:31:10;4.22;;;0.80;;
76059;SDS011;64759;52.220;5.170;2023-04-24T02:33:35;1.65;;;0.80;;
76059;SDS011;64759;52.220;5.170;2023-04-24T02:36:01;2.25;;;0.90;;
76059;SDS011;64759;52.220;5.170;2023-04-24T02:38:28;1.92;;;0.70;;
76059;SDS011;64759;52.220;5.170;2023-04-24T02:40:54;3.25;;;1.05;;
76059;SDS011;64759;52.220;5.170;2023-04-24T02:43:19;2.67;;;1.10;;
76059;SDS011;64759;52.220;5.170;2023-04-24T02:45:45;2.60;;;1.30;;
76059;SDS011;64759;52.220;5.170;2023-04-24T02:48:11;3.58;;;1.42;;
76059;SDS011;64759;52.220;5.170;2023-04-24T02:50:36;4.78;;;1.50;;
76059;SDS011;64759;52.220;5.170;2023-04-24T02:53:02;3.95;;;1.55;;
76059;SDS011;64759;52.220;5.170;2023-04-24T02:55:27;3.55;;;1.50;;
76059;SDS011;64759;52.220;5.170;2023-04-24T02:57:53;3.35;;;1.75;;
76059;SDS011;64759;52.220;5.170;2023-04-24T03:00:18;3.67;;;2.15;;
76059;SDS011;64759;52.220;5.170;2023-04-24T03:02:44;3.50;;;2.33;;
76059;SDS011;64759;52.220;5.170;2023-04-24T03:05:10;3.35;;;2.13;;
76059;SDS011;64759;52.220;5.170;2023-04-24T03:07:37;4.88;;;2.28;;
76059;SDS011;64759;52.220;5.170;2023-04-24T03:10:04;8.13;;;2.53;;
76059;SDS011;64759;52.220;5.170;2023-04-24T03:12:30;4.38;;;1.80;;
76059;SDS011;64759;52.220;5.170;2023-04-24T03:14:56;3.60;;;1.70;;
76059;SDS011;64759;52.220;5.170;2023-04-24T03:17:21;3.00;;;1.90;;
76059;SDS011;64759;52.220;5.170;2023-04-24T03:19:47;3.75;;;1.80;;
76059;SDS011;64759;52.220;5.170;2023-04-24T03:22:13;5.07;;;2.00;;
76059;SDS011;64759;52.220;5.170;2023-04-24T03:24:39;5.32;;;2.45;;
76059;SDS011;64759;52.220;5.170;2023-04-24T03:27:05;8.50;;;2.70;;
76059;SDS011;64759;52.220;5.170;2023-04-24T03:29:53;3.25;;;2.42;;
76059;SDS011;64759;52.220;5.170;2023-04-24T03:32:22;4.05;;;2.28;;
76059;SDS011;64759;52.220;5.170;2023-04-24T03:34:48;5.43;;;2.47;;
76059;SDS011;64759;52.220;5.170;2023-04-24T03:37:16;4.15;;;2.55;;
76059;SDS011;64759;52.220;5.170;2023-04-24T03:39:48;2.88;;;2.42;;
76059;SDS011;64759;52.220;5.170;2023-04-24T03:44:51;2.58;;;2.05;;
76059;SDS011;64759;52.220;5.170;2023-04-24T03:47:18;1.83;;;1.73;;
76059;SDS011;64759;52.220;5.170;2023-04-24T03:49:45;3.50;;;1.88;;
76059;SDS011;64759;52.220;5.170;2023-04-24T03:52:11;1.40;;;1.30;;
76059;SDS011;64759;52.220;5.170;2023-04-24T03:54:36;1.50;;;1.40;;
76059;SDS011;64759;52.220;5.170;2023-04-24T03:57:02;2.83;;;1.58;;
76059;SDS011;64759;52.220;5.170;2023-04-24T03:59:31;1.75;;;1.52;;
76059;SDS011;64759;52.220;5.170;2023-04-24T04:02:14;2.05;;;1.85;;
76059;SDS011;64759;52.220;5.170;2023-04-24T04:04:40;2.63;;;1.52;;
76059;SDS011;64759;52.220;5.170;2023-04-24T04:07:05;1.77;;;1.67;;
76059;SDS011;64759;52.220;5.170;2023-04-24T04:09:31;2.20;;;2.00;;
76059;SDS011;64759;52.220;5.170;2023-04-24T04:11:57;4.18;;;2.30;;
76059;SDS011;64759;52.220;5.170;2023-04-24T04:14:23;4.00;;;1.90;;
76059;SDS011;64759;52.220;5.170;2023-04-24T04:16:48;2.30;;;1.73;;
76059;SDS011;64759;52.220;5.170;2023-04-24T04:19:14;3.35;;;2.53;;
76059;SDS011;64759;52.220;5.170;2023-04-24T04:21:39;3.05;;;1.90;;
76059;SDS011;64759;52.220;5.170;2023-04-24T04:24:23;3.92;;;2.50;;
76059;SDS011;64759;52.220;5.170;2023-04-24T04:26:50;4.28;;;2.70;;
76059;SDS011;64759;52.220;5.170;2023-04-24T04:29:22;5.60;;;3.10;;
76059;SDS011;64759;52.220;5.170;2023-04-24T04:31:49;5.28;;;2.90;;
76059;SDS011;64759;52.220;5.170;2023-04-24T04:34:15;3.15;;;2.50;;
76059;SDS011;64759;52.220;5.170;2023-04-24T04:36:41;5.10;;;2.88;;
76059;SDS011;64759;52.220;5.170;2023-04-24T04:39:28;3.17;;;2.70;;
76059;SDS011;64759;52.220;5.170;2023-04-24T04:44:30;5.35;;;2.80;;
76059;SDS011;64759;52.220;5.170;2023-04-24T04:46:57;4.15;;;2.42;;
76059;SDS011;64759;52.220;5.170;2023-04-24T04:49:29;3.03;;;2.72;;
76059;SDS011;64759;52.220;5.170;2023-04-24T04:51:54;7.95;;;3.10;;
76059;SDS011;64759;52.220;5.170;2023-04-24T04:54:22;7.00;;;2.67;;
76059;SDS011;64759;52.220;5.170;2023-04-24T04:56:49;6.03;;;2.53;;
76059;SDS011;64759;52.220;5.170;2023-04-24T04:59:15;5.88;;;2.63;;
76059;SDS011;64759;52.220;5.170;2023-04-24T05:01:41;3.20;;;2.53;;
76059;SDS011;64759;52.220;5.170;2023-04-24T05:04:08;3.42;;;2.67;;
76059;SDS011;64759;52.220;5.170;2023-04-24T05:06:36;3.47;;;2.00;;
76059;SDS011;64759;52.220;5.170;2023-04-24T05:09:01;3.42;;;2.15;;
76059;SDS011;64759;52.220;5.170;2023-04-24T05:11:49;5.72;;;2.25;;
76059;SDS011;64759;52.220;5.170;2023-04-24T05:14:15;3.95;;;2.75;;
76059;SDS011;64759;52.220;5.170;2023-04-24T05:16:43;4.93;;;2.65;;
76059;SDS011;64759;52.220;5.170;2023-04-24T05:19:10;3.50;;;1.95;;
76059;SDS011;64759;52.220;5.170;2023-04-24T05:21:39;2.95;;;1.73;;
76059;SDS011;64759;52.220;5.170;2023-04-24T05:24:09;1.55;;;1.10;;
76059;SDS011;64759;52.220;5.170;2023-04-24T05:26:53;1.17;;;1.00;;
76059;SDS011;64759;52.220;5.170;2023-04-24T05:29:23;1.88;;;1.15;;
76059;SDS011;64759;52.220;5.170;2023-04-24T05:31:49;2.55;;;0.98;;
76059;SDS011;64759;52.220;5.170;2023-04-24T05:34:15;4.20;;;1.42;;
76059;SDS011;64759;52.220;5.170;2023-04-24T05:36:43;4.32;;;1.10;;
76059;SDS011;64759;52.220;5.170;2023-04-24T05:39:08;1.42;;;1.02;;
76059;SDS011;64759;52.220;5.170;2023-04-24T05:41:34;1.40;;;0.70;;
76059;SDS011;64759;52.220;5.170;2023-04-24T05:43:59;2.05;;;0.88;;
76059;SDS011;64759;52.220;5.170;2023-04-24T05:46:25;0.75;;;0.73;;
76059;SDS011;64759;52.220;5.170;2023-04-24T05:48:54;0.50;;;0.50;;
76059;SDS011;64759;52.220;5.170;2023-04-24T05:51:19;1.90;;;0.90;;
76059;SDS011;64759;52.220;5.170;2023-04-24T05:53:45;1.05;;;0.80;;
76059;SDS011;64759;52.220;5.170;2023-04-24T05:56:11;4.70;;;1.02;;
76059;SDS011;64759;52.220;5.170;2023-04-24T05:58:37;0.63;;;0.60;;
76059;SDS011;64759;52.220;5.170;2023-04-24T06:01:03;1.27;;;0.95;;
76059;SDS011;64759;52.220;5.170;2023-04-24T06:03:29;1.95;;;0.90;;
76059;SDS011;64759;52.220;5.170;2023-04-24T06:05:55;3.47;;;1.40;;
76059;SDS011;64759;52.220;5.170;2023-04-24T06:08:21;4.13;;;2.38;;
76059;SDS011;64759;52.220;5.170;2023-04-24T06:10:48;8.00;;;5.20;;
76059;SDS011;64759;52.220;5.170;2023-04-24T06:13:15;13.93;;;7.38;;
76059;SDS011;64759;52.220;5.170;2023-04-24T06:15:50;21.08;;;12.25;;
76059;SDS011;64759;52.220;5.170;2023-04-24T06:18:21;29.38;;;15.35;;
76059;SDS011;64759;52.220;5.170;2023-04-24T06:20:48;30.25;;;16.83;;
76059;SDS011;64759;52.220;5.170;2023-04-24T06:23:16;25.33;;;15.85;;
76059;SDS011;64759;52.220;5.170;2023-04-24T06:25:41;27.08;;;17.10;;
76059;SDS011;64759;52.220;5.170;2023-04-24T06:28:07;31.23;;;17.33;;
76059;SDS011;64759;52.220;5.170;2023-04-24T06:30:32;26.67;;;15.00;;
76059;SDS011;64759;52.220;5.170;2023-04-24T06:32:57;25.80;;;14.85;;
76059;SDS011;64759;52.220;5.170;2023-04-24T06:35:23;29.40;;;14.18;;
76059;SDS011;64759;52.220;5.170;2023-04-24T06:37:48;21.90;;;13.93;;
76059;SDS011;64759;52.220;5.170;2023-04-24T06:40:15;25.58;;;14.85;;
76059;SDS011;64759;52.220;5.170;2023-04-24T06:42:43;24.58;;;15.25;;
76059;SDS011;64759;52.220;5.170;2023-04-24T06:45:09;33.10;;;16.00;;
76059;SDS011;64759;52.220;5.170;2023-04-24T06:47:35;22.65;;;13.23;;
76059;SDS011;64759;52.220;5.170;2023-04-24T06:50:00;21.63;;;12.52;;
76059;SDS011;64759;52.220;5.170;2023-04-24T06:52:26;24.42;;;11.95;;
76059;SDS011;64759;52.220;5.170;2023-04-24T06:54:51;21.98;;;11.93;;
76059;SDS011;64759;52.220;5.170;2023-04-24T06:57:17;20.80;;;11.68;;
76059;SDS011;64759;52.220;5.170;2023-04-24T06:59:43;24.73;;;11.27;;
76059;SDS011;64759;52.220;5.170;2023-04-24T07:02:08;27.08;;;10.65;;
76059;SDS011;64759;52.220;5.170;2023-04-24T07:04:33;25.85;;;11.05;;
76059;SDS011;64759;52.220;5.170;2023-04-24T07:06:59;17.38;;;9.93;;
76059;SDS011;64759;52.220;5.170;2023-04-24T07:09:25;24.25;;;10.98;;
76059;SDS011;64759;52.220;5.170;2023-04-24T07:11:51;23.73;;;10.70;;
76059;SDS011;64759;52.220;5.170;2023-04-24T07:14:17;18.17;;;10.00;;
76059;SDS011;64759;52.220;5.170;2023-04-24T07:16:43;24.35;;;10.85;;
76059;SDS011;64759;52.220;5.170;2023-04-24T07:19:09;27.77;;;10.13;;
76059;SDS011;64759;52.220;5.170;2023-04-24T07:21:34;26.67;;;9.80;;
76059;SDS011;64759;52.220;5.170;2023-04-24T07:24:00;21.90;;;9.55;;
76059;SDS011;64759;52.220;5.170;2023-04-24T07:26:26;21.58;;;9.57;;
76059;SDS011;64759;52.220;5.170;2023-04-24T07:28:53;26.95;;;10.95;;
76059;SDS011;64759;52.220;5.170;2023-04-24T07:31:18;28.67;;;10.18;;
76059;SDS011;64759;52.220;5.170;2023-04-24T07:33:44;26.40;;;10.18;;
76059;SDS011;64759;52.220;5.170;2023-04-24T07:36:10;25.60;;;9.25;;
76059;SDS011;64759;52.220;5.170;2023-04-24T07:41:06;20.70;;;8.00;;
76059;SDS011;64759;52.220;5.170;2023-04-24T07:43:31;21.45;;;8.38;;
76059;SDS011;64759;52.220;5.170;2023-04-24T07:45:57;15.38;;;7.85;;
76059;SDS011;64759;52.220;5.170;2023-04-24T07:48:22;24.55;;;8.00;;
76059;SDS011;64759;52.220;5.170;2023-04-24T07:50:49;26.50;;;8.93;;
76059;SDS011;64759;52.220;5.170;2023-04-24T07:53:15;27.35;;;6.97;;
76059;SDS011;64759;52.220;5.170;2023-04-24T07:55:40;22.17;;;6.43;;
76059;SDS011;64759;52.220;5.170;2023-04-24T07:58:06;21.80;;;6.60;;
76059;SDS011;64759;52.220;5.170;2023-04-24T08:00:31;20.63;;;6.65;;
76059;SDS011;64759;52.220;5.170;2023-04-24T08:02:58;17.58;;;6.05;;
76059;SDS011;64759;52.220;5.170;2023-04-24T08:05:23;18.60;;;4.80;;
76059;SDS011;64759;52.220;5.170;2023-04-24T08:07:50;20.60;;;5.32;;
76059;SDS011;64759;52.220;5.170;2023-04-24T08:10:16;17.50;;;4.57;;
76059;SDS011;64759;52.220;5.170;2023-04-24T08:12:41;24.02;;;5.13;;
76059;SDS011;64759;52.220;5.170;2023-04-24T08:15:07;17.05;;;4.63;;
76059;SDS011;64759;52.220;5.170;2023-04-24T08:17:34;22.02;;;4.80;;
76059;SDS011;64759;52.220;5.170;2023-04-24T08:20:00;18.50;;;4.43;;
76059;SDS011;64759;52.220;5.170;2023-04-24T08:22:27;27.10;;;5.32;;
76059;SDS011;64759;52.220;5.170;2023-04-24T08:24:53;23.50;;;5.20;;
76059;SDS011;64759;52.220;5.170;2023-04-24T08:27:19;23.38;;;4.93;;
76059;SDS011;64759;52.220;5.170;2023-04-24T08:29:44;25.70;;;4.57;;
76059;SDS011;64759;52.220;5.170;2023-04-24T08:32:09;27.25;;;6.40;;
76059;SDS011;64759;52.220;5.170;2023-04-24T08:34:35;25.83;;;4.93;;
76059;SDS011;64759;52.220;5.170;2023-04-24T08:37:00;25.73;;;5.63;;
76059;SDS011;64759;52.220;5.170;2023-04-24T08:39:26;20.60;;;4.95;;
76059;SDS011;64759;52.220;5.170;2023-04-24T08:41:52;18.55;;;3.60;;
76059;SDS011;64759;52.220;5.170;2023-04-24T08:44:18;19.95;;;3.70;;
76059;SDS011;64759;52.220;5.170;2023-04-24T08:46:45;19.83;;;3.53;;
76059;SDS011;64759;52.220;5.170;2023-04-24T08:49:13;16.88;;;4.03;;
76059;SDS011;64759;52.220;5.170;2023-04-24T08:51:42;18.88;;;3.90;;
76059;SDS011;64759;52.220;5.170;2023-04-24T08:54:08;20.40;;;3.80;;
76059;SDS011;64759;52.220;5.170;2023-04-24T08:56:34;12.88;;;3.33;;
76059;SDS011;64759;52.220;5.170;2023-04-24T08:59:04;16.10;;;4.28;;
76059;SDS011;64759;52.220;5.170;2023-04-24T09:01:31;19.27;;;4.40;;
76059;SDS011;64759;52.220;5.170;2023-04-24T09:03:59;25.08;;;4.53;;
76059;SDS011;64759;52.220;5.170;2023-04-24T09:06:28;21.23;;;4.82;;
76059;SDS011;64759;52.220;5.170;2023-04-24T09:08:55;19.20;;;3.90;;
76059;SDS011;64759;52.220;5.170;2023-04-24T09:11:22;17.15;;;3.72;;
76059;SDS011;64759;52.220;5.170;2023-04-24T09:13:49;22.05;;;3.35;;
76059;SDS011;64759;52.220;5.170;2023-04-24T09:16:16;20.88;;;6.22;;
76059;SDS011;64759;52.220;5.170;2023-04-24T09:18:42;13.55;;;3.78;;
76059;SDS011;64759;52.220;5.170;2023-04-24T09:21:07;19.50;;;3.92;;
76059;SDS011;64759;52.220;5.170;2023-04-24T09:23:34;21.23;;;3.45;;
76059;SDS011;64759;52.220;5.170;2023-04-24T09:26:01;13.55;;;3.20;;
76059;SDS011;64759;52.220;5.170;2023-04-24T09:28:31;16.05;;;3.83;;
76059;SDS011;64759;52.220;5.170;2023-04-24T09:31:05;16.35;;;3.17;;
76059;SDS011;64759;52.220;5.170;2023-04-24T09:33:32;10.35;;;2.75;;
76059;SDS011;64759;52.220;5.170;2023-04-24T09:35:57;17.23;;;3.63;;
76059;SDS011;64759;52.220;5.170;2023-04-24T09:38:35;17.17;;;4.55;;
76059;SDS011;64759;52.220;5.170;2023-04-24T09:41:04;11.63;;;2.47;;
76059;SDS011;64759;52.220;5.170;2023-04-24T09:43:32;12.60;;;2.85;;
76059;SDS011;64759;52.220;5.170;2023-04-24T09:45:59;14.18;;;3.15;;
76059;SDS011;64759;52.220;5.170;2023-04-24T09:48:31;11.80;;;2.63;;
76059;SDS011;64759;52.220;5.170;2023-04-24T09:50:58;12.43;;;3.17;;
76059;SDS011;64759;52.220;5.170;2023-04-24T09:53:26;10.25;;;2.47;;
76059;SDS011;64759;52.220;5.170;2023-04-24T09:55:52;10.88;;;3.70;;
76059;SDS011;64759;52.220;5.170;2023-04-24T09:58:19;10.45;;;3.60;;
76059;SDS011;64759;52.220;5.170;2023-04-24T10:00:52;9.95;;;3.05;;
76059;SDS011;64759;52.220;5.170;2023-04-24T10:03:18;10.20;;;2.65;;
76059;SDS011;64759;52.220;5.170;2023-04-24T10:05:45;6.90;;;1.63;;
76059;SDS011;64759;52.220;5.170;2023-04-24T10:08:11;5.82;;;1.95;;
76059;SDS011;64759;52.220;5.170;2023-04-24T10:10:39;10.65;;;1.85;;
76059;SDS011;64759;52.220;5.170;2023-04-24T10:13:09;12.85;;;2.25;;
76059;SDS011;64759;52.220;5.170;2023-04-24T10:15:36;6.20;;;1.50;;
76059;SDS011;64759;52.220;5.170;2023-04-24T10:18:03;10.07;;;1.50;;
76059;SDS011;64759;52.220;5.170;2023-04-24T10:20:31;5.40;;;1.30;;
76059;SDS011;64759;52.220;5.170;2023-04-24T10:22:58;7.75;;;1.80;;
76059;SDS011;64759;52.220;5.170;2023-04-24T10:25:26;8.50;;;2.17;;
76059;SDS011;64759;52.220;5.170;2023-04-24T10:27:54;8.30;;;1.50;;
76059;SDS011;64759;52.220;5.170;2023-04-24T10:30:24;6.47;;;1.95;;
76059;SDS011;64759;52.220;5.170;2023-04-24T10:32:54;8.32;;;1.40;;
76059;SDS011;64759;52.220;5.170;2023-04-24T10:35:21;7.47;;;1.70;;
76059;SDS011;64759;52.220;5.170;2023-04-24T10:37:53;6.38;;;1.73;;
76059;SDS011;64759;52.220;5.170;2023-04-24T10:40:33;5.40;;;1.60;;
76059;SDS011;64759;52.220;5.170;2023-04-24T10:43:01;8.90;;;2.08;;
76059;SDS011;64759;52.220;5.170;2023-04-24T10:45:31;8.32;;;1.55;;
76059;SDS011;64759;52.220;5.170;2023-04-24T10:47:57;12.50;;;1.65;;
76059;SDS011;64759;52.220;5.170;2023-04-24T10:50:26;5.45;;;1.40;;
76059;SDS011;64759;52.220;5.170;2023-04-24T10:52:53;16.08;;;2.22;;
76059;SDS011;64759;52.220;5.170;2023-04-24T10:55:41;8.32;;;2.47;;
76059;SDS011;64759;52.220;5.170;2023-04-24T10:58:10;10.77;;;2.05;;
76059;SDS011;64759;52.220;5.170;2023-04-24T11:00:37;4.97;;;1.63;;
76059;SDS011;64759;52.220;5.170;2023-04-24T11:03:05;6.93;;;1.98;;
76059;SDS011;64759;52.220;5.170;2023-04-24T11:05:48;10.32;;;2.08;;
76059;SDS011;64759;52.220;5.170;2023-04-24T11:08:22;9.20;;;1.67;;
76059;SDS011;64759;52.220;5.170;2023-04-24T11:11:08;8.27;;;1.40;;
76059;SDS011;64759;52.220;5.170;2023-04-24T11:16:26;10.63;;;1.50;;
76059;SDS011;64759;52.220;5.170;2023-04-24T11:19:11;1.55;;;0.88;;
76059;SDS011;64759;52.220;5.170;2023-04-24T11:24:27;3.50;;;1.05;;
76059;SDS011;64759;52.220;5.170;2023-04-24T11:27:14;2.97;;;0.70;;
76059;SDS011;64759;52.220;5.170;2023-04-24T11:29:42;2.58;;;0.65;;
76059;SDS011;64759;52.220;5.170;2023-04-24T11:34:57;5.88;;;0.88;;
76059;SDS011;64759;52.220;5.170;2023-04-24T11:37:34;5.72;;;1.20;;
76059;SDS011;64759;52.220;5.170;2023-04-24T11:40:04;5.50;;;1.70;;
76059;SDS011;64759;52.220;5.170;2023-04-24T11:42:34;5.43;;;1.70;;
76059;SDS011;64759;52.220;5.170;2023-04-24T11:45:10;7.72;;;1.83;;
76059;SDS011;64759;52.220;5.170;2023-04-24T11:47:48;9.45;;;1.73;;
76059;SDS011;64759;52.220;5.170;2023-04-24T11:50:15;6.18;;;1.83;;
76059;SDS011;64759;52.220;5.170;2023-04-24T11:52:43;8.43;;;2.03;;
76059;SDS011;64759;52.220;5.170;2023-04-24T11:57:48;6.25;;;1.77;;
76059;SDS011;64759;52.220;5.170;2023-04-24T12:00:24;7.47;;;1.55;;
76059;SDS011;64759;52.220;5.170;2023-04-24T12:03:07;4.73;;;1.90;;
76059;SDS011;64759;52.220;5.170;2023-04-24T12:05:34;3.55;;;1.40;;
76059;SDS011;64759;52.220;5.170;2023-04-24T12:08:00;7.22;;;1.67;;
76059;SDS011;64759;52.220;5.170;2023-04-24T12:10:27;9.02;;;1.45;;
76059;SDS011;64759;52.220;5.170;2023-04-24T12:12:57;3.97;;;1.35;;
76059;SDS011;64759;52.220;5.170;2023-04-24T12:15:23;3.50;;;1.00;;
76059;SDS011;64759;52.220;5.170;2023-04-24T12:17:50;10.52;;;1.85;;
76059;SDS011;64759;52.220;5.170;2023-04-24T12:20:17;4.15;;;1.80;;
76059;SDS011;64759;52.220;5.170;2023-04-24T12:22:52;6.55;;;1.63;;
76059;SDS011;64759;52.220;5.170;2023-04-24T12:25:20;8.82;;;2.15;;
76059;SDS011;64759;52.220;5.170;2023-04-24T12:27:52;9.20;;;2.10;;
76059;SDS011;64759;52.220;5.170;2023-04-24T12:30:19;13.90;;;2.42;;
76059;SDS011;64759;52.220;5.170;2023-04-24T12:32:45;8.93;;;1.63;;
76059;SDS011;64759;52.220;5.170;2023-04-24T12:35:13;8.88;;;2.00;;
76059;SDS011;64759;52.220;5.170;2023-04-24T12:37:43;14.13;;;2.65;;
76059;SDS011;64759;52.220;5.170;2023-04-24T12:40:09;15.65;;;3.13;;
76059;SDS011;64759;52.220;5.170;2023-04-24T12:42:41;16.63;;;3.20;;
76059;SDS011;64759;52.220;5.170;2023-04-24T12:45:08;15.25;;;3.25;;
76059;SDS011;64759;52.220;5.170;2023-04-24T12:47:33;20.20;;;3.45;;
76059;SDS011;64759;52.220;5.170;2023-04-24T12:50:01;18.25;;;3.50;;
76059;SDS011;64759;52.220;5.170;2023-04-24T12:52:28;19.58;;;4.35;;
76059;SDS011;64759;52.220;5.170;2023-04-24T12:54:55;15.75;;;2.83;;
76059;SDS011;64759;52.220;5.170;2023-04-24T12:57:26;16.15;;;4.20;;
76059;SDS011;64759;52.220;5.170;2023-04-24T12:59:54;13.00;;;2.90;;
76059;SDS011;64759;52.220;5.170;2023-04-24T13:02:21;12.52;;;2.78;;
76059;SDS011;64759;52.220;5.170;2023-04-24T13:04:47;19.13;;;3.65;;
76059;SDS011;64759;52.220;5.170;2023-04-24T13:07:14;18.25;;;3.80;;
76059;SDS011;64759;52.220;5.170;2023-04-24T13:09:40;11.90;;;3.10;;
76059;SDS011;64759;52.220;5.170;2023-04-24T13:12:08;19.70;;;4.00;;
76059;SDS011;64759;52.220;5.170;2023-04-24T13:14:34;14.30;;;2.78;;
76059;SDS011;64759;52.220;5.170;2023-04-24T13:17:00;20.50;;;3.88;;
76059;SDS011;64759;52.220;5.170;2023-04-24T13:19:26;15.43;;;3.05;;
76059;SDS011;64759;52.220;5.170;2023-04-24T13:21:53;17.70;;;3.33;;
76059;SDS011;64759;52.220;5.170;2023-04-24T13:24:20;13.02;;;3.35;;
76059;SDS011;64759;52.220;5.170;2023-04-24T13:26:46;18.38;;;3.33;;
76059;SDS011;64759;52.220;5.170;2023-04-24T13:29:11;17.90;;;3.80;;
76059;SDS011;64759;52.220;5.170;2023-04-24T13:31:36;23.23;;;3.80;;
76059;SDS011;64759;52.220;5.170;2023-04-24T13:34:02;18.92;;;4.03;;
76059;SDS011;64759;52.220;5.170;2023-04-24T13:36:28;12.85;;;3.55;;
76059;SDS011;64759;52.220;5.170;2023-04-24T13:38:54;15.20;;;3.78;;
76059;SDS011;64759;52.220;5.170;2023-04-24T13:41:19;17.65;;;3.42;;
76059;SDS011;64759;52.220;5.170;2023-04-24T13:43:45;15.80;;;3.35;;
76059;SDS011;64759;52.220;5.170;2023-04-24T13:46:10;12.18;;;3.65;;
76059;SDS011;64759;52.220;5.170;2023-04-24T13:48:35;15.07;;;3.20;;
76059;SDS011;64759;52.220;5.170;2023-04-24T13:51:01;14.88;;;3.38;;
76059;SDS011;64759;52.220;5.170;2023-04-24T13:53:28;12.98;;;3.03;;
76059;SDS011;64759;52.220;5.170;2023-04-24T13:55:54;18.90;;;4.50;;
76059;SDS011;64759;52.220;5.170;2023-04-24T13:58:20;19.05;;;3.85;;
76059;SDS011;64759;52.220;5.170;2023-04-24T14:00:45;14.95;;;3.42;;
76059;SDS011;64759;52.220;5.170;2023-04-24T14:03:13;11.70;;;3.25;;
76059;SDS011;64759;52.220;5.170;2023-04-24T14:05:38;13.48;;;3.40;;
76059;SDS011;64759;52.220;5.170;2023-04-24T14:08:04;10.57;;;3.70;;
76059;SDS011;64759;52.220;5.170;2023-04-24T14:10:29;20.20;;;4.97;;
76059;SDS011;64759;52.220;5.170;2023-04-24T14:12:54;14.52;;;3.97;;
76059;SDS011;64759;52.220;5.170;2023-04-24T14:15:20;13.77;;;3.97;;
76059;SDS011;64759;52.220;5.170;2023-04-24T14:17:47;11.65;;;3.63;;
76059;SDS011;64759;52.220;5.170;2023-04-24T14:20:14;14.05;;;3.97;;
76059;SDS011;64759;52.220;5.170;2023-04-24T14:22:39;16.48;;;4.40;;
76059;SDS011;64759;52.220;5.170;2023-04-24T14:25:05;17.95;;;3.90;;
76059;SDS011;64759;52.220;5.170;2023-04-24T14:27:31;16.33;;;3.90;;
76059;SDS011;64759;52.220;5.170;2023-04-24T14:29:57;21.63;;;4.68;;
76059;SDS011;64759;52.220;5.170;2023-04-24T14:32:23;16.80;;;3.63;;
76059;SDS011;64759;52.220;5.170;2023-04-24T14:34:48;13.43;;;2.85;;
76059;SDS011;64759;52.220;5.170;2023-04-24T14:37:13;11.55;;;2.72;;
76059;SDS011;64759;52.220;5.170;2023-04-24T14:39:39;8.23;;;2.25;;
76059;SDS011;64759;52.220;5.170;2023-04-24T14:42:05;10.65;;;3.05;;
76059;SDS011;64759;52.220;5.170;2023-04-24T14:44:31;17.27;;;4.22;;
76059;SDS011;64759;52.220;5.170;2023-04-24T14:46:56;15.23;;;3.00;;
76059;SDS011;64759;52.220;5.170;2023-04-24T14:49:22;13.90;;;2.80;;
76059;SDS011;64759;52.220;5.170;2023-04-24T14:51:48;14.20;;;3.35;;
76059;SDS011;64759;52.220;5.170;2023-04-24T14:54:13;13.13;;;2.92;;
76059;SDS011;64759;52.220;5.170;2023-04-24T14:56:39;19.08;;;4.25;;
76059;SDS011;64759;52.220;5.170;2023-04-24T14:59:06;21.80;;;5.45;;